sensor_id;sensor_type;location;lat;lon;timestamp;pressure;altitude;pressure_sealevel;temperature;humidity
64967;BME280;51710;38.732;-121.358;2023-11-18T00:01:34;100631.69;;;20.30;62.01
64967;BME280;51710;38.732;-121.358;2023-11-18T00:04:01;100631.75;;;20.23;62.40
64967;BME280;51710;38.732;-121.358;2023-11-18T00:06:27;100625.13;;;20.19;62.60
64967;BME280;51710;38.732;-121.358;2023-11-18T00:08:53;100623.28;;;20.13;62.66
64967;BME280;51710;38.732;-121.358;2023-11-18T00:11:20;100625.22;;;20.06;63.51
64967;BME280;51710;38.732;-121.358;2023-11-18T00:13:46;100619.66;;;20.01;63.91
64967;BME280;51710;38.732;-121.358;2023-11-18T00:16:13;100623.00;;;19.96;64.19
64967;BME280;51710;38.732;-121.358;2023-11-18T00:18:42;100623.91;;;19.90;64.47
64967;BME280;51710;38.732;-121.358;2023-11-18T00:21:08;100621.03;;;19.85;64.23
64967;BME280;51710;38.732;-121.358;2023-11-18T00:23:35;100618.53;;;19.84;64.04
64967;BME280;51710;38.732;-121.358;2023-11-18T00:26:01;100626.66;;;19.84;64.09
64967;BME280;51710;38.732;-121.358;2023-11-18T00:28:28;100622.66;;;19.86;64.22
64967;BME280;51710;38.732;-121.358;2023-11-18T00:30:54;100619.97;;;19.86;64.08
64967;BME280;51710;38.732;-121.358;2023-11-18T00:33:21;100621.63;;;19.87;64.23
64967;BME280;51710;38.732;-121.358;2023-11-18T00:35:47;100624.91;;;19.89;63.78
64967;BME280;51710;38.732;-121.358;2023-11-18T00:38:13;100619.50;;;19.89;63.92
64967;BME280;51710;38.732;-121.358;2023-11-18T00:40:39;100628.69;;;19.88;63.75
64967;BME280;51710;38.732;-121.358;2023-11-18T00:43:06;100619.97;;;19.86;64.14
64967;BME280;51710;38.732;-121.358;2023-11-18T00:45:33;100625.59;;;19.85;64.06
64967;BME280;51710;38.732;-121.358;2023-11-18T00:48:00;100625.81;;;19.83;64.10
64967;BME280;51710;38.732;-121.358;2023-11-18T00:50:26;100619.81;;;19.81;64.00
64967;BME280;51710;38.732;-121.358;2023-11-18T00:52:52;100629.59;;;19.76;64.03
64967;BME280;51710;38.732;-121.358;2023-11-18T00:55:18;100635.47;;;19.73;64.10
64967;BME280;51710;38.732;-121.358;2023-11-18T00:57:46;100652.50;;;19.73;63.99
64967;BME280;51710;38.732;-121.358;2023-11-18T01:00:14;100665.81;;;19.75;63.67
64967;BME280;51710;38.732;-121.358;2023-11-18T01:02:44;100669.13;;;19.77;62.98
64967;BME280;51710;38.732;-121.358;2023-11-18T01:05:13;100652.06;;;19.76;62.65
64967;BME280;51710;38.732;-121.358;2023-11-18T01:07:41;100642.91;;;19.77;62.40
64967;BME280;51710;38.732;-121.358;2023-11-18T01:10:09;100642.09;;;19.77;62.03
64967;BME280;51710;38.732;-121.358;2023-11-18T01:12:39;100655.59;;;19.77;61.80
64967;BME280;51710;38.732;-121.358;2023-11-18T01:15:07;100641.88;;;19.78;62.46
64967;BME280;51710;38.732;-121.358;2023-11-18T01:17:36;100638.09;;;19.79;62.48
64967;BME280;51710;38.732;-121.358;2023-11-18T01:20:03;100647.88;;;19.80;62.31
64967;BME280;51710;38.732;-121.358;2023-11-18T01:22:35;100645.59;;;19.77;62.17
64967;BME280;51710;38.732;-121.358;2023-11-18T01:25:01;100654.78;;;19.76;61.97
64967;BME280;51710;38.732;-121.358;2023-11-18T01:27:28;100642.28;;;19.75;61.50
64967;BME280;51710;38.732;-121.358;2023-11-18T01:29:54;100639.56;;;19.75;61.61
64967;BME280;51710;38.732;-121.358;2023-11-18T01:32:20;100629.59;;;19.76;61.58
64967;BME280;51710;38.732;-121.358;2023-11-18T01:34:47;100627.13;;;19.74;61.48
64967;BME280;51710;38.732;-121.358;2023-11-18T01:37:17;100626.69;;;19.77;61.42
64967;BME280;51710;38.732;-121.358;2023-11-18T01:39:43;100619.19;;;19.79;61.61
64967;BME280;51710;38.732;-121.358;2023-11-18T01:42:10;100616.47;;;19.79;61.31
64967;BME280;51710;38.732;-121.358;2023-11-18T01:44:37;100610.47;;;19.77;61.59
64967;BME280;51710;38.732;-121.358;2023-11-18T01:47:05;100609.28;;;19.73;61.50
64967;BME280;51710;38.732;-121.358;2023-11-18T01:49:35;100599.31;;;19.67;62.03
64967;BME280;51710;38.732;-121.358;2023-11-18T01:52:10;100602.91;;;19.61;61.89
64967;BME280;51710;38.732;-121.358;2023-11-18T01:54:38;100595.66;;;19.55;61.76
64967;BME280;51710;38.732;-121.358;2023-11-18T01:57:05;100589.47;;;19.48;61.89
64967;BME280;51710;38.732;-121.358;2023-11-18T01:59:33;100597.63;;;19.42;61.89
64967;BME280;51710;38.732;-121.358;2023-11-18T02:01:59;100595.78;;;19.36;62.33
64967;BME280;51710;38.732;-121.358;2023-11-18T02:04:27;100598.28;;;19.37;62.65
64967;BME280;51710;38.732;-121.358;2023-11-18T02:06:54;100603.25;;;19.40;62.55
64967;BME280;51710;38.732;-121.358;2023-11-18T02:09:22;100593.88;;;19.43;62.39
64967;BME280;51710;38.732;-121.358;2023-11-18T02:15:10;100589.38;;;19.30;63.15
64967;BME280;51710;38.732;-121.358;2023-11-18T02:17:41;100594.97;;;19.29;63.08
64967;BME280;51710;38.732;-121.358;2023-11-18T02:20:10;100589.19;;;19.25;62.92
64967;BME280;51710;38.732;-121.358;2023-11-18T02:22:42;100592.13;;;19.17;63.37
64967;BME280;51710;38.732;-121.358;2023-11-18T02:25:18;100591.34;;;19.10;63.80
64967;BME280;51710;38.732;-121.358;2023-11-18T02:27:45;100593.88;;;19.05;64.32
64967;BME280;51710;38.732;-121.358;2023-11-18T02:30:13;100593.69;;;19.00;64.87
64967;BME280;51710;38.732;-121.358;2023-11-18T02:32:55;100602.41;;;18.95;64.79
64967;BME280;51710;38.732;-121.358;2023-11-18T02:35:54;100620.72;;;18.87;65.35
64967;BME280;51710;38.732;-121.358;2023-11-18T02:38:37;100632.38;;;18.81;65.75
64967;BME280;51710;38.732;-121.358;2023-11-18T02:41:12;100621.38;;;18.76;66.76
64967;BME280;51710;38.732;-121.358;2023-11-18T02:43:40;100617.69;;;18.64;67.21
64967;BME280;51710;38.732;-121.358;2023-11-18T02:46:08;100614.00;;;18.39;68.52
64967;BME280;51710;38.732;-121.358;2023-11-18T02:48:39;100610.06;;;18.15;69.46
64967;BME280;51710;38.732;-121.358;2023-11-18T02:51:07;100593.31;;;17.93;70.26
64967;BME280;51710;38.732;-121.358;2023-11-18T02:53:34;100581.88;;;17.78;71.09
64967;BME280;51710;38.732;-121.358;2023-11-18T02:56:00;100580.22;;;17.64;72.01
64967;BME280;51710;38.732;-121.358;2023-11-18T02:58:30;100571.94;;;17.53;73.14
64967;BME280;51710;38.732;-121.358;2023-11-18T03:00:57;100576.03;;;17.42;73.67
64967;BME280;51710;38.732;-121.358;2023-11-18T03:03:26;100568.78;;;17.36;74.19
64967;BME280;51710;38.732;-121.358;2023-11-18T03:05:55;100570.22;;;17.32;74.49
64967;BME280;51710;38.732;-121.358;2023-11-18T03:08:21;100566.91;;;17.30;74.58
64967;BME280;51710;38.732;-121.358;2023-11-18T03:10:48;100573.50;;;17.28;75.15
64967;BME280;51710;38.732;-121.358;2023-11-18T03:13:16;100574.34;;;17.28;75.06
64967;BME280;51710;38.732;-121.358;2023-11-18T03:15:42;100566.69;;;17.32;74.95
64967;BME280;51710;38.732;-121.358;2023-11-18T03:18:09;100572.09;;;17.38;74.77
64967;BME280;51710;38.732;-121.358;2023-11-18T03:20:35;100577.91;;;17.42;74.88
64967;BME280;51710;38.732;-121.358;2023-11-18T03:23:01;100588.09;;;17.46;74.60
64967;BME280;51710;38.732;-121.358;2023-11-18T03:25:27;100579.59;;;17.49;74.69
64967;BME280;51710;38.732;-121.358;2023-11-18T03:27:54;100585.00;;;17.56;74.76
64967;BME280;51710;38.732;-121.358;2023-11-18T03:30:20;100592.03;;;17.63;74.90
64967;BME280;51710;38.732;-121.358;2023-11-18T03:32:47;100604.06;;;17.67;75.07
64967;BME280;51710;38.732;-121.358;2023-11-18T03:35:13;100610.69;;;17.71;75.36
64967;BME280;51710;38.732;-121.358;2023-11-18T03:37:40;100613.63;;;17.76;75.05
64967;BME280;51710;38.732;-121.358;2023-11-18T03:40:11;100604.06;;;17.80;74.79
64967;BME280;51710;38.732;-121.358;2023-11-18T03:42:38;100621.06;;;17.81;75.30
64967;BME280;51710;38.732;-121.358;2023-11-18T03:45:06;100603.88;;;17.75;75.45
64967;BME280;51710;38.732;-121.358;2023-11-18T03:47:32;100595.16;;;17.60;75.87
64967;BME280;51710;38.732;-121.358;2023-11-18T03:49:59;100591.19;;;17.43;76.63
64967;BME280;51710;38.732;-121.358;2023-11-18T03:52:26;100589.88;;;17.26;77.17
64967;BME280;51710;38.732;-121.358;2023-11-18T03:54:53;100591.94;;;17.18;78.09
64967;BME280;51710;38.732;-121.358;2023-11-18T03:57:23;100598.16;;;17.18;78.28
64967;BME280;51710;38.732;-121.358;2023-11-18T03:59:49;100594.41;;;17.19;78.61
64967;BME280;51710;38.732;-121.358;2023-11-18T04:02:16;100600.22;;;17.16;78.71
64967;BME280;51710;38.732;-121.358;2023-11-18T04:04:42;100600.78;;;17.05;78.94
64967;BME280;51710;38.732;-121.358;2023-11-18T04:07:08;100613.16;;;16.93;80.32
64967;BME280;51710;38.732;-121.358;2023-11-18T04:09:34;100604.63;;;16.83;80.87
64967;BME280;51710;38.732;-121.358;2023-11-18T04:12:01;100603.34;;;16.72;81.81
64967;BME280;51710;38.732;-121.358;2023-11-18T04:14:27;100612.41;;;16.65;82.52
64967;BME280;51710;38.732;-121.358;2023-11-18T04:16:54;100607.00;;;16.58;82.91
64967;BME280;51710;38.732;-121.358;2023-11-18T04:19:21;100606.56;;;16.55;83.16
64967;BME280;51710;38.732;-121.358;2023-11-18T04:21:47;100613.00;;;16.54;83.08
64967;BME280;51710;38.732;-121.358;2023-11-18T04:24:15;100616.50;;;16.54;82.97
64967;BME280;51710;38.732;-121.358;2023-11-18T04:26:44;100617.31;;;16.55;83.02
64967;BME280;51710;38.732;-121.358;2023-11-18T04:29:10;100621.06;;;16.54;82.93
64967;BME280;51710;38.732;-121.358;2023-11-18T04:31:36;100628.47;;;16.52;82.99
64967;BME280;51710;38.732;-121.358;2023-11-18T04:34:03;100644.41;;;16.53;82.88
64967;BME280;51710;38.732;-121.358;2023-11-18T04:36:32;100649.22;;;16.58;82.81
64967;BME280;51710;38.732;-121.358;2023-11-18T04:38:58;100657.09;;;16.66;82.63
64967;BME280;51710;38.732;-121.358;2023-11-18T04:41:24;100665.84;;;16.74;82.79
64967;BME280;51710;38.732;-121.358;2023-11-18T04:43:51;100665.50;;;16.84;82.62
64967;BME280;51710;38.732;-121.358;2023-11-18T04:46:18;100653.28;;;16.88;82.61
64967;BME280;51710;38.732;-121.358;2023-11-18T04:48:45;100655.53;;;16.78;82.76
64967;BME280;51710;38.732;-121.358;2023-11-18T04:51:11;100667.06;;;16.72;82.87
64967;BME280;51710;38.732;-121.358;2023-11-18T04:53:38;100669.75;;;16.72;83.24
64967;BME280;51710;38.732;-121.358;2023-11-18T04:56:05;100662.94;;;16.76;83.02
64967;BME280;51710;38.732;-121.358;2023-11-18T04:58:37;100665.41;;;16.71;83.16
64967;BME280;51710;38.732;-121.358;2023-11-18T05:01:05;100664.34;;;16.65;83.69
64967;BME280;51710;38.732;-121.358;2023-11-18T05:03:31;100654.59;;;16.58;84.21
64967;BME280;51710;38.732;-121.358;2023-11-18T05:05:57;100651.19;;;16.49;84.64
64967;BME280;51710;38.732;-121.358;2023-11-18T05:08:23;100642.13;;;16.50;84.72
64967;BME280;51710;38.732;-121.358;2023-11-18T05:10:50;100635.28;;;16.48;84.62
64967;BME280;51710;38.732;-121.358;2023-11-18T05:13:17;100625.56;;;16.47;84.63
64967;BME280;51710;38.732;-121.358;2023-11-18T05:15:45;100626.53;;;16.46;84.91
64967;BME280;51710;38.732;-121.358;2023-11-18T05:18:12;100622.19;;;16.45;85.27
64967;BME280;51710;38.732;-121.358;2023-11-18T05:20:45;100631.31;;;16.44;85.33
64967;BME280;51710;38.732;-121.358;2023-11-18T05:23:12;100630.72;;;16.48;85.44
64967;BME280;51710;38.732;-121.358;2023-11-18T05:25:44;100636.97;;;16.55;85.43
64967;BME280;51710;38.732;-121.358;2023-11-18T05:28:10;100639.69;;;16.62;85.17
64967;BME280;51710;38.732;-121.358;2023-11-18T05:30:38;100632.06;;;16.65;85.02
64967;BME280;51710;38.732;-121.358;2023-11-18T05:33:06;100642.25;;;16.70;84.77
64967;BME280;51710;38.732;-121.358;2023-11-18T05:35:34;100640.59;;;16.75;84.59
64967;BME280;51710;38.732;-121.358;2023-11-18T05:38:01;100632.78;;;16.80;84.57
64967;BME280;51710;38.732;-121.358;2023-11-18T05:40:31;100643.97;;;16.84;84.38
64967;BME280;51710;38.732;-121.358;2023-11-18T05:42:58;100636.72;;;16.84;84.12
64967;BME280;51710;38.732;-121.358;2023-11-18T05:45:24;100645.41;;;16.80;83.99
64967;BME280;51710;38.732;-121.358;2023-11-18T05:47:57;100646.81;;;16.76;84.20
64967;BME280;51710;38.732;-121.358;2023-11-18T05:50:24;100645.38;;;16.73;84.32
64967;BME280;51710;38.732;-121.358;2023-11-18T05:52:52;100643.06;;;16.70;84.15
64967;BME280;51710;38.732;-121.358;2023-11-18T05:55:19;100638.09;;;16.67;84.07
64967;BME280;51710;38.732;-121.358;2023-11-18T05:57:45;100643.03;;;16.64;84.25
64967;BME280;51710;38.732;-121.358;2023-11-18T06:00:13;100642.38;;;16.62;84.13
64967;BME280;51710;38.732;-121.358;2023-11-18T06:02:42;100636.38;;;16.60;84.37
64967;BME280;51710;38.732;-121.358;2023-11-18T06:05:09;100636.78;;;16.57;84.25
64967;BME280;51710;38.732;-121.358;2023-11-18T06:07:38;100638.84;;;16.55;84.30
64967;BME280;51710;38.732;-121.358;2023-11-18T06:10:09;100649.22;;;16.58;84.37
64967;BME280;51710;38.732;-121.358;2023-11-18T06:12:35;100647.78;;;16.62;84.11
64967;BME280;51710;38.732;-121.358;2023-11-18T06:15:03;100654.59;;;16.58;84.00
64967;BME280;51710;38.732;-121.358;2023-11-18T06:17:29;100653.13;;;16.55;83.94
64967;BME280;51710;38.732;-121.358;2023-11-18T06:19:56;100654.97;;;16.55;84.00
64967;BME280;51710;38.732;-121.358;2023-11-18T06:22:22;100654.72;;;16.50;83.97
64967;BME280;51710;38.732;-121.358;2023-11-18T06:24:48;100647.44;;;16.44;83.99
64967;BME280;51710;38.732;-121.358;2023-11-18T06:27:15;100649.69;;;16.40;84.31
64967;BME280;51710;38.732;-121.358;2023-11-18T06:29:41;100646.56;;;16.37;84.69
64967;BME280;51710;38.732;-121.358;2023-11-18T06:32:08;100646.94;;;16.34;84.95
64967;BME280;51710;38.732;-121.358;2023-11-18T06:34:34;100649.00;;;16.32;84.99
64967;BME280;51710;38.732;-121.358;2023-11-18T06:37:00;100650.66;;;16.33;85.31
64967;BME280;51710;38.732;-121.358;2023-11-18T06:39:27;100649.81;;;16.32;85.36
64967;BME280;51710;38.732;-121.358;2023-11-18T06:41:56;100649.00;;;16.32;85.47
64967;BME280;51710;38.732;-121.358;2023-11-18T06:44:24;100661.59;;;16.31;85.64
64967;BME280;51710;38.732;-121.358;2023-11-18T06:46:51;100658.47;;;16.28;85.74
64967;BME280;51710;38.732;-121.358;2023-11-18T06:49:17;100660.13;;;16.29;85.81
64967;BME280;51710;38.732;-121.358;2023-11-18T06:51:44;100669.22;;;16.28;85.76
64967;BME280;51710;38.732;-121.358;2023-11-18T06:54:10;100669.63;;;16.25;85.75
64967;BME280;51710;38.732;-121.358;2023-11-18T06:56:40;100658.88;;;16.25;86.13
64967;BME280;51710;38.732;-121.358;2023-11-18T06:59:10;100669.22;;;16.28;86.30
64967;BME280;51710;38.732;-121.358;2023-11-18T07:01:39;100664.50;;;16.30;86.03
64967;BME280;51710;38.732;-121.358;2023-11-18T07:04:09;100657.44;;;16.29;86.15
64967;BME280;51710;38.732;-121.358;2023-11-18T07:06:36;100666.34;;;16.29;86.36
64967;BME280;51710;38.732;-121.358;2023-11-18T07:09:08;100667.56;;;16.27;86.18
64967;BME280;51710;38.732;-121.358;2023-11-18T07:11:40;100667.09;;;16.23;86.57
64967;BME280;51710;38.732;-121.358;2023-11-18T07:14:10;100659.88;;;16.24;86.30
64967;BME280;51710;38.732;-121.358;2023-11-18T07:16:39;100667.09;;;16.23;86.62
64967;BME280;51710;38.732;-121.358;2023-11-18T07:19:06;100660.53;;;16.26;86.55
64967;BME280;51710;38.732;-121.358;2023-11-18T07:21:33;100658.03;;;16.24;86.90
64967;BME280;51710;38.732;-121.358;2023-11-18T07:24:00;100656.34;;;16.23;86.68
64967;BME280;51710;38.732;-121.358;2023-11-18T07:26:28;100654.91;;;16.21;86.79
64967;BME280;51710;38.732;-121.358;2023-11-18T07:28:54;100653.06;;;16.21;87.08
64967;BME280;51710;38.732;-121.358;2023-11-18T07:31:21;100649.13;;;16.24;87.01
64967;BME280;51710;38.732;-121.358;2023-11-18T07:33:48;100658.47;;;16.28;86.94
64967;BME280;51710;38.732;-121.358;2023-11-18T07:36:18;100658.09;;;16.31;86.55
64967;BME280;51710;38.732;-121.358;2023-11-18T07:38:47;100656.03;;;16.33;86.80
64967;BME280;51710;38.732;-121.358;2023-11-18T07:41:13;100653.09;;;16.28;86.56
64967;BME280;51710;38.732;-121.358;2023-11-18T07:43:52;100651.63;;;16.25;86.78
64967;BME280;51710;38.732;-121.358;2023-11-18T07:46:25;100639.22;;;16.24;86.93
64967;BME280;51710;38.732;-121.358;2023-11-18T07:48:52;100640.69;;;16.27;86.55
64967;BME280;51710;38.732;-121.358;2023-11-18T07:51:19;100633.25;;;16.29;86.86
64967;BME280;51710;38.732;-121.358;2023-11-18T07:53:49;100631.59;;;16.28;86.50
64967;BME280;51710;38.732;-121.358;2023-11-18T07:56:16;100634.69;;;16.25;86.57
64967;BME280;51710;38.732;-121.358;2023-11-18T07:58:43;100640.25;;;16.23;86.54
64967;BME280;51710;38.732;-121.358;2023-11-18T08:01:13;100636.75;;;16.23;86.44
64967;BME280;51710;38.732;-121.358;2023-11-18T08:03:42;100639.78;;;16.20;86.51
64967;BME280;51710;38.732;-121.358;2023-11-18T08:06:10;100631.13;;;16.18;86.41
64967;BME280;51710;38.732;-121.358;2023-11-18T08:08:38;100641.88;;;16.18;86.64
64967;BME280;51710;38.732;-121.358;2023-11-18T08:11:05;100637.50;;;16.17;86.16
64967;BME280;51710;38.732;-121.358;2023-11-18T08:13:31;100637.31;;;16.18;86.41
64967;BME280;51710;38.732;-121.358;2023-11-18T08:15:58;100635.25;;;16.20;86.10
64967;BME280;51710;38.732;-121.358;2023-11-18T08:18:24;100634.06;;;16.23;85.76
64967;BME280;51710;38.732;-121.358;2023-11-18T08:20:50;100634.50;;;16.26;85.79
64967;BME280;51710;38.732;-121.358;2023-11-18T08:23:17;100638.63;;;16.29;85.65
64967;BME280;51710;38.732;-121.358;2023-11-18T08:25:44;100636.38;;;16.32;85.14
64967;BME280;51710;38.732;-121.358;2023-11-18T08:28:12;100634.13;;;16.36;84.96
64967;BME280;51710;38.732;-121.358;2023-11-18T08:30:39;100639.94;;;16.39;84.81
64967;BME280;51710;38.732;-121.358;2023-11-18T08:33:05;100638.72;;;16.42;84.42
64967;BME280;51710;38.732;-121.358;2023-11-18T08:35:35;100638.72;;;16.42;83.71
64967;BME280;51710;38.732;-121.358;2023-11-18T08:38:02;100635.00;;;16.43;83.89
64967;BME280;51710;38.732;-121.358;2023-11-18T08:40:30;100637.69;;;16.43;83.55
64967;BME280;51710;38.732;-121.358;2023-11-18T08:42:56;100635.00;;;16.43;82.95
64967;BME280;51710;38.732;-121.358;2023-11-18T08:45:26;100629.22;;;16.46;82.15
64967;BME280;51710;38.732;-121.358;2023-11-18T08:47:56;100618.78;;;16.51;81.42
64967;BME280;51710;38.732;-121.358;2023-11-18T08:50:23;100616.94;;;16.58;80.35
64967;BME280;51710;38.732;-121.358;2023-11-18T08:52:50;100616.13;;;16.64;79.34
64967;BME280;51710;38.732;-121.358;2023-11-18T08:55:26;100607.09;;;16.71;78.67
64967;BME280;51710;38.732;-121.358;2023-11-18T08:58:09;100609.78;;;16.78;78.22
64967;BME280;51710;38.732;-121.358;2023-11-18T09:00:48;100609.19;;;16.82;77.55
64967;BME280;51710;38.732;-121.358;2023-11-18T09:03:20;100606.75;;;16.88;77.13
64967;BME280;51710;38.732;-121.358;2023-11-18T09:06:04;100612.56;;;16.91;76.48
64967;BME280;51710;38.732;-121.358;2023-11-18T09:08:44;100607.56;;;16.95;76.39
64967;BME280;51710;38.732;-121.358;2023-11-18T09:11:15;100615.06;;;16.99;76.07
64967;BME280;51710;38.732;-121.358;2023-11-18T09:13:43;100620.44;;;16.99;75.92
64967;BME280;51710;38.732;-121.358;2023-11-18T09:16:15;100614.66;;;17.02;75.54
64967;BME280;51710;38.732;-121.358;2023-11-18T09:18:43;100610.94;;;17.03;75.01
64967;BME280;51710;38.732;-121.358;2023-11-18T09:21:13;100612.59;;;17.04;75.30
64967;BME280;51710;38.732;-121.358;2023-11-18T09:23:45;100612.59;;;17.04;74.97
64967;BME280;51710;38.732;-121.358;2023-11-18T09:26:13;100609.91;;;17.04;74.91
64967;BME280;51710;38.732;-121.358;2023-11-18T09:28:40;100613.00;;;17.01;74.70
64967;BME280;51710;38.732;-121.358;2023-11-18T09:31:07;100609.25;;;16.96;74.93
64967;BME280;51710;38.732;-121.358;2023-11-18T09:33:39;100605.09;;;16.93;74.97
64967;BME280;51710;38.732;-121.358;2023-11-18T09:36:11;100603.84;;;16.89;74.82
64967;BME280;51710;38.732;-121.358;2023-11-18T09:38:39;100611.28;;;16.87;74.80
64967;BME280;51710;38.732;-121.358;2023-11-18T09:41:10;100611.69;;;16.84;74.82
64967;BME280;51710;38.732;-121.358;2023-11-18T09:43:37;100610.03;;;16.83;74.76
64967;BME280;51710;38.732;-121.358;2023-11-18T09:46:27;100606.69;;;16.81;74.90
64967;BME280;51710;38.732;-121.358;2023-11-18T09:49:26;100613.75;;;16.82;74.94
64967;BME280;51710;38.732;-121.358;2023-11-18T09:51:59;100609.00;;;16.84;74.66
64967;BME280;51710;38.732;-121.358;2023-11-18T09:54:39;100609.63;;;16.86;74.63
64967;BME280;51710;38.732;-121.358;2023-11-18T10:00:02;100607.13;;;16.84;74.48
64967;BME280;51710;38.732;-121.358;2023-11-18T10:02:49;100604.63;;;16.83;74.16
64967;BME280;51710;38.732;-121.358;2023-11-18T10:05:22;100605.06;;;16.80;74.22
64967;BME280;51710;38.732;-121.358;2023-11-18T10:07:52;100606.91;;;16.79;74.46
64967;BME280;51710;38.732;-121.358;2023-11-18T10:10:22;100604.63;;;16.83;74.33
64967;BME280;51710;38.732;-121.358;2023-11-18T10:12:51;100609.59;;;16.79;74.25
64967;BME280;51710;38.732;-121.358;2023-11-18T10:15:30;100597.13;;;16.72;74.54
64967;BME280;51710;38.732;-121.358;2023-11-18T10:17:57;100603.31;;;16.66;74.67
64967;BME280;51710;38.732;-121.358;2023-11-18T10:20:49;100606.81;;;16.60;74.64
64967;BME280;51710;38.732;-121.358;2023-11-18T10:23:20;100609.03;;;16.50;74.95
64967;BME280;51710;38.732;-121.358;2023-11-18T10:25:54;100608.53;;;16.40;75.50
64967;BME280;51710;38.732;-121.358;2023-11-18T10:28:29;100607.66;;;16.33;75.87
64967;BME280;51710;38.732;-121.358;2023-11-18T10:31:02;100617.13;;;16.29;76.13
64967;BME280;51710;38.732;-121.358;2023-11-18T10:33:42;100614.19;;;16.24;76.50
64967;BME280;51710;38.732;-121.358;2023-11-18T10:36:21;100616.88;;;16.24;76.12
64967;BME280;51710;38.732;-121.358;2023-11-18T10:38:50;100615.63;;;16.20;76.26
64967;BME280;51710;38.732;-121.358;2023-11-18T10:41:20;100614.81;;;16.19;76.25
64967;BME280;51710;38.732;-121.358;2023-11-18T10:43:46;100610.88;;;16.22;76.25
64967;BME280;51710;38.732;-121.358;2023-11-18T10:46:15;100612.16;;;16.26;76.08
64967;BME280;51710;38.732;-121.358;2023-11-18T10:48:42;100616.94;;;16.30;75.77
64967;BME280;51710;38.732;-121.358;2023-11-18T10:51:19;100622.94;;;16.32;75.83
64967;BME280;51710;38.732;-121.358;2023-11-18T10:53:51;100615.31;;;16.36;75.44
64967;BME280;51710;38.732;-121.358;2023-11-18T10:56:29;100613.06;;;16.39;75.71
64967;BME280;51710;38.732;-121.358;2023-11-18T10:58:57;100617.38;;;16.34;76.11
64967;BME280;51710;38.732;-121.358;2023-11-18T11:01:34;100621.28;;;16.31;75.83
64967;BME280;51710;38.732;-121.358;2023-11-18T11:04:05;100615.47;;;16.28;76.01
64967;BME280;51710;38.732;-121.358;2023-11-18T11:06:33;100619.56;;;16.24;76.07
64967;BME280;51710;38.732;-121.358;2023-11-18T11:08:59;100618.75;;;16.23;76.33
64967;BME280;51710;38.732;-121.358;2023-11-18T11:11:38;100617.72;;;16.24;76.27
64967;BME280;51710;38.732;-121.358;2023-11-18T11:14:06;100620.22;;;16.26;76.12
64967;BME280;51710;38.732;-121.358;2023-11-18T11:16:42;100624.19;;;16.30;75.63
64967;BME280;51710;38.732;-121.358;2023-11-18T11:19:24;100623.78;;;16.33;75.69
64967;BME280;51710;38.732;-121.358;2023-11-18T11:22:05;100618.84;;;16.36;75.69
64967;BME280;51710;38.732;-121.358;2023-11-18T11:27:24;100611.44;;;16.45;75.15
64967;BME280;51710;38.732;-121.358;2023-11-18T11:30:22;100609.44;;;16.47;74.82
64967;BME280;51710;38.732;-121.358;2023-11-18T11:32:52;100618.78;;;16.51;74.27
64967;BME280;51710;38.732;-121.358;2023-11-18T11:35:40;100619.38;;;16.53;74.05
64967;BME280;51710;38.732;-121.358;2023-11-18T11:38:12;100609.25;;;16.55;73.88
64967;BME280;51710;38.732;-121.358;2023-11-18T11:40:41;100608.03;;;16.57;73.58
64967;BME280;51710;38.732;-121.358;2023-11-18T11:43:10;100603.09;;;16.61;73.52
64967;BME280;51710;38.732;-121.358;2023-11-18T11:45:37;100610.75;;;16.64;73.38
64967;BME280;51710;38.732;-121.358;2023-11-18T11:48:07;100603.56;;;16.71;73.19
64967;BME280;51710;38.732;-121.358;2023-11-18T11:51:05;100607.09;;;16.71;73.06
64967;BME280;51710;38.732;-121.358;2023-11-18T11:54:04;100602.13;;;16.75;73.60
64967;BME280;51710;38.732;-121.358;2023-11-18T11:56:42;100599.03;;;16.78;72.68
64967;BME280;51710;38.732;-121.358;2023-11-18T11:59:09;100608.81;;;16.85;72.58
64967;BME280;51710;38.732;-121.358;2023-11-18T12:01:40;100604.06;;;16.88;72.42
64967;BME280;51710;38.732;-121.358;2023-11-18T12:04:15;100605.06;;;16.86;72.64
64967;BME280;51710;38.732;-121.358;2023-11-18T12:06:47;100599.69;;;16.86;72.35
64967;BME280;51710;38.732;-121.358;2023-11-18T12:09:16;100607.75;;;16.86;72.25
64967;BME280;51710;38.732;-121.358;2023-11-18T12:11:48;100599.69;;;16.86;72.60
64967;BME280;51710;38.732;-121.358;2023-11-18T12:14:15;100610.03;;;16.89;72.45
64967;BME280;51710;38.732;-121.358;2023-11-18T12:16:57;100608.19;;;16.90;72.83
64967;BME280;51710;38.732;-121.358;2023-11-18T12:19:36;100612.56;;;16.91;72.72
64967;BME280;51710;38.732;-121.358;2023-11-18T12:22:11;100603.84;;;16.89;72.75
64967;BME280;51710;38.732;-121.358;2023-11-18T12:27:45;100606.31;;;16.84;73.12
64967;BME280;51710;38.732;-121.358;2023-11-18T12:33:02;100601.28;;;16.74;73.57
64967;BME280;51710;38.732;-121.358;2023-11-18T12:41:01;100616.13;;;16.64;74.04
64967;BME280;51710;38.732;-121.358;2023-11-18T12:43:46;100612.00;;;16.61;74.32
64967;BME280;51710;38.732;-121.358;2023-11-18T12:49:03;100608.25;;;16.56;74.45
64967;BME280;51710;38.732;-121.358;2023-11-18T12:51:32;100604.09;;;16.53;74.88
64967;BME280;51710;38.732;-121.358;2023-11-18T12:54:02;100603.66;;;16.50;75.33
64967;BME280;51710;38.732;-121.358;2023-11-18T12:56:28;100594.13;;;16.47;75.66